Marianne — VRFM5 — position and weather

sailwx.info

Track history (hours):
 
Tides and Currents Weather Stations Pressure Air Temp Water Temp Dewpoint Dewpoint Depression Visibility Wind Speed Wind Dir Waves Ship Positions

Marianne

Last reported at 2014-Sep-20 23:33 UTC. Time now 2014-Sep-22 20:16 UTC.
Position N 59°06' E 005°02'.

Length 97 m; draft 5.5 m.

Type: Ship (hazmat cat B). MMSI: 477560836.

Date/timePositionNaut miles runAvg speedWind from/ knotsBaromVisibWave heightAir tempDewpointWater temp
2014-Sep-20 23:33N 59°06' E 005°02'1111.0
2014-Sep-20 22:33N 59°06' E 005°24'9 9.1
2014-Sep-20 21:33N 59°15' E 005°31'2 1.7
2014-Sep-20 20:33N 59°16' E 005°30'0 0.0
2014-Sep-20 12:33N 59°16' E 005°30'0 0.0
2014-Sep-20 11:06N 59°16' E 005°30'0 0.0
2014-Sep-20 10:09N 59°16' E 005°30'0 0.0
2014-Sep-20 09:30N 59°16' E 005°30'0 0.0
2014-Sep-20 07:06N 59°16' E 005°30'0 0.0
2014-Sep-20 05:21N 59°16' E 005°30'0 0.0
2014-Sep-20 04:30N 59°16' E 005°30'0 0.0
2014-Sep-20 03:30N 59°16' E 005°30'0 0.0
2014-Sep-20 01:33N 59°16' E 005°30'2 1.6
2014-Sep-20 00:11N 59°14' E 005°30'0 0.0
2014-Sep-19 19:23N 59°14' E 005°31'0 0.0
2014-Sep-19 17:24N 59°14' E 005°31'0 0.0
2014-Sep-19 16:29N 59°14' E 005°31'0 0.0
2014-Sep-19 11:30N 59°14' E 005°31'7 7.2
2014-Sep-19 10:33N 59°07' E 005°29'1010.3
2014-Sep-19 09:33N 58°59' E 005°18'1211.9
2014-Sep-19 08:33N 58°53' E 004°58'2 2.0
2014-Sep-19 07:34N 58°52' E 005°01'2 2.0
2014-Sep-19 06:33N 58°51' E 005°04'6 5.9
2014-Sep-19 05:34N 58°47' E 005°13'20513.7
2014-Sep-18 14:33N 55°28' E 006°45'1412.5
2014-Sep-18 13:26N 55°24' E 007°08'1314.7
2014-Sep-18 12:33N 55°24' E 007°31'1514.9
2014-Sep-18 11:33N 55°24' E 007°57'6 5.1
2014-Sep-18 10:27N 55°24' E 008°07'0 0.0
2014-Sep-18 09:15N 55°24' E 008°07'0 0.0
2014-Sep-18 08:30N 55°24' E 008°07'0 0.0
2014-Sep-18 07:33N 55°24' E 008°07'0 0.0
2014-Sep-18 06:33N 55°24' E 008°07'0 0.1
2014-Sep-18 05:33N 55°24' E 008°07'8 8.4
2014-Sep-18 04:33N 55°28' E 008°20'3 3.1
2014-Sep-18 03:33N 55°28' E 008°26'0 0.0
2014-Sep-18 02:32N 55°28' E 008°26'0 0.0
2014-Sep-18 01:33N 55°28' E 008°26'0 0.0
2014-Sep-18 00:21N 55°28' E 008°26'0 0.0
2014-Sep-17 23:33N 55°28' E 008°26'0 0.0
2014-Sep-17 22:21N 55°28' E 008°26'0 0.0
2014-Sep-17 21:33N 55°28' E 008°26'0 0.0
2014-Sep-17 20:27N 55°28' E 008°26'0 0.0
2014-Sep-17 19:29N 55°28' E 008°26'0 0.0
2014-Sep-17 18:27N 55°28' E 008°26'0 0.0
2014-Sep-17 17:30N 55°28' E 008°26'0 0.0
2014-Sep-17 16:27N 55°28' E 008°26'0 0.0
2014-Sep-17 15:33N 55°28' E 008°26'0 0.0
2014-Sep-17 14:18N 55°28' E 008°26'0 0.0
2014-Sep-17 13:32N 55°28' E 008°26'0 0.0
2014-Sep-17 12:32N 55°28' E 008°26'0 0.0
2014-Sep-17 11:33N 55°28' E 008°26'0 0.0
2014-Sep-17 10:24N 55°28' E 008°26'0 0.0
2014-Sep-17 09:20N 55°28' E 008°26'0 0.0
2014-Sep-17 08:24N 55°28' E 008°26'0 0.0
2014-Sep-17 07:23N 55°28' E 008°26'0 0.0
2014-Sep-17 06:26N 55°28' E 008°26'0 0.0
2014-Sep-17 05:32N 55°28' E 008°26'0 0.0
2014-Sep-17 04:30N 55°28' E 008°26'0 0.0
2014-Sep-17 03:33N 55°28' E 008°26'0 0.0
2014-Sep-17 02:30N 55°28' E 008°26'0 0.0
2014-Sep-17 00:32N 55°28' E 008°26'0 0.0
2014-Sep-16 23:32N 55°28' E 008°26'0 0.0
2014-Sep-16 22:33N 55°28' E 008°26'0 0.0
2014-Sep-16 21:33N 55°28' E 008°26'0 0.0
2014-Sep-16 20:30N 55°28' E 008°26'0 0.0
2014-Sep-16 19:33N 55°28' E 008°26'0 0.0
2014-Sep-16 17:26N 55°28' E 008°26'0 0.0
2014-Sep-16 16:33N 55°28' E 008°26'0 0.0
2014-Sep-16 15:30N 55°28' E 008°26'0 0.0
2014-Sep-16 14:33N 55°28' E 008°26'0 0.0
2014-Sep-16 13:33N 55°28' E 008°26'5 5.5
2014-Sep-16 12:33N 55°27' E 008°17'1010.2
2014-Sep-16 11:33N 55°24' E 007°59'9 9.0
2014-Sep-16 10:33N 55°24' E 007°43'1313.0
2014-Sep-16 09:33N 55°24' E 007°20'26512.0
2014-Sep-15 11:32N 54°53' W 000°19'2013.9
2014-Sep-15 10:04N 54°45' W 000°52'713.8
2014-Sep-15 09:32N 54°42' W 001°04'6 6.0
2014-Sep-15 08:33N 54°37' W 001°10'0 0.0
2014-Sep-15 07:26N 54°37' W 001°10'0 0.0
2014-Sep-15 05:33N 54°37' W 001°10'0 0.0
2014-Sep-13 14:14N 54°37' W 001°10'0 0.0
2014-Sep-13 13:26N 54°37' W 001°10'0 0.0
2014-Sep-13 12:29N 54°37' W 001°10'0 0.0
2014-Sep-13 10:32N 54°37' W 001°10'0 0.0
2014-Sep-13 09:32N 54°37' W 001°10'0 0.0
2014-Sep-13 08:32N 54°37' W 001°10'0 0.0
2014-Sep-12 17:08N 54°37' W 001°10'0 0.0
2014-Sep-12 16:32N 54°37' W 001°10'0 0.0
2014-Sep-12 15:20N 54°37' W 001°10'0 0.0
2014-Sep-12 14:08N 54°37' W 001°10'0 0.0
2014-Sep-12 13:26N 54°37' W 001°10'0 0.0
2014-Sep-12 11:23N 54°37' W 001°10'0 0.0
2014-Sep-12 09:29N 54°37' W 001°10'0 0.0
2014-Sep-12 06:29N 54°37' W 001°10'0 0.0
2014-Sep-11 17:14N 54°37' W 001°10'0 0.0
2014-Sep-11 16:32N 54°37' W 001°10'0 0.0
2014-Sep-11 15:05N 54°37' W 001°10'0 0.0
2014-Sep-11 12:23N 54°37' W 001°10'0 0.0
2014-Sep-11 11:33N 54°37' W 001°10'5 4.6
2014-Sep-11 10:31N 54°40' W 001°03'0 0.1
2014-Sep-11 09:31N 54°40' W 001°03'0 0.0
2014-Sep-11 08:10N 54°40' W 001°03'0 0.1
2014-Sep-11 07:25N 54°40' W 001°03'0 0.0
2014-Sep-11 06:25N 54°40' W 001°03'0 0.0
2014-Sep-11 05:31N 54°40' W 001°03'0 0.0
2014-Sep-11 04:22N 54°40' W 001°03'0 0.0
2014-Sep-11 03:30N 54°40' W 001°03'0 0.0
2014-Sep-11 02:31N 54°40' W 001°03'0 0.1
2014-Sep-11 01:32N 54°40' W 001°03'0 0.0
2014-Sep-11 00:31N 54°40' W 001°03'  
Track history (hours):
 
Tides and Currents Weather Stations Pressure Air Temp Water Temp Dewpoint Dewpoint Depression Visibility Wind Speed Wind Dir Waves Ship Positions

Marianne

Last reported at 2014-Sep-20 23:33 UTC. Time now 2014-Sep-22 20:16 UTC.
Position N 59°06' E 005°02'.

Length 97 m; draft 5.5 m.

Type: Ship (hazmat cat B). MMSI: 477560836.

Date/timePositionNaut miles runAvg speedWind from/ knotsBaromVisibWave heightAir tempDewpointWater temp
2014-Sep-20 23:33N 59°06' E 005°02'1111.0
2014-Sep-20 22:33N 59°06' E 005°24'9 9.1
2014-Sep-20 21:33N 59°15' E 005°31'2 1.7
2014-Sep-20 20:33N 59°16' E 005°30'0 0.0
2014-Sep-20 12:33N 59°16' E 005°30'0 0.0
2014-Sep-20 11:06N 59°16' E 005°30'0 0.0
2014-Sep-20 10:09N 59°16' E 005°30'0 0.0
2014-Sep-20 09:30N 59°16' E 005°30'0 0.0
2014-Sep-20 07:06N 59°16' E 005°30'0 0.0
2014-Sep-20 05:21N 59°16' E 005°30'0 0.0
2014-Sep-20 04:30N 59°16' E 005°30'0 0.0
2014-Sep-20 03:30N 59°16' E 005°30'0 0.0
2014-Sep-20 01:33N 59°16' E 005°30'2 1.6
2014-Sep-20 00:11N 59°14' E 005°30'0 0.0
2014-Sep-19 19:23N 59°14' E 005°31'0 0.0
2014-Sep-19 17:24N 59°14' E 005°31'0 0.0
2014-Sep-19 16:29N 59°14' E 005°31'0 0.0
2014-Sep-19 11:30N 59°14' E 005°31'7 7.2
2014-Sep-19 10:33N 59°07' E 005°29'1010.3
2014-Sep-19 09:33N 58°59' E 005°18'1211.9
2014-Sep-19 08:33N 58°53' E 004°58'2 2.0
2014-Sep-19 07:34N 58°52' E 005°01'2 2.0
2014-Sep-19 06:33N 58°51' E 005°04'6 5.9
2014-Sep-19 05:34N 58°47' E 005°13'20513.7
2014-Sep-18 14:33N 55°28' E 006°45'1412.5
2014-Sep-18 13:26N 55°24' E 007°08'1314.7
2014-Sep-18 12:33N 55°24' E 007°31'1514.9
2014-Sep-18 11:33N 55°24' E 007°57'6 5.1
2014-Sep-18 10:27N 55°24' E 008°07'0 0.0
2014-Sep-18 09:15N 55°24' E 008°07'0 0.0
2014-Sep-18 08:30N 55°24' E 008°07'0 0.0
2014-Sep-18 07:33N 55°24' E 008°07'0 0.0
2014-Sep-18 06:33N 55°24' E 008°07'0 0.1
2014-Sep-18 05:33N 55°24' E 008°07'8 8.4
2014-Sep-18 04:33N 55°28' E 008°20'3 3.1
2014-Sep-18 03:33N 55°28' E 008°26'0 0.0
2014-Sep-18 02:32N 55°28' E 008°26'0 0.0
2014-Sep-18 01:33N 55°28' E 008°26'0 0.0
2014-Sep-18 00:21N 55°28' E 008°26'0 0.0
2014-Sep-17 23:33N 55°28' E 008°26'0 0.0
2014-Sep-17 22:21N 55°28' E 008°26'0 0.0
2014-Sep-17 21:33N 55°28' E 008°26'0 0.0
2014-Sep-17 20:27N 55°28' E 008°26'0 0.0
2014-Sep-17 19:29N 55°28' E 008°26'0 0.0
2014-Sep-17 18:27N 55°28' E 008°26'0 0.0
2014-Sep-17 17:30N 55°28' E 008°26'0 0.0
2014-Sep-17 16:27N 55°28' E 008°26'0 0.0
2014-Sep-17 15:33N 55°28' E 008°26'0 0.0
2014-Sep-17 14:18N 55°28' E 008°26'0 0.0
2014-Sep-17 13:32N 55°28' E 008°26'0 0.0
2014-Sep-17 12:32N 55°28' E 008°26'0 0.0
2014-Sep-17 11:33N 55°28' E 008°26'0 0.0
2014-Sep-17 10:24N 55°28' E 008°26'0 0.0
2014-Sep-17 09:20N 55°28' E 008°26'0 0.0
2014-Sep-17 08:24N 55°28' E 008°26'0 0.0
2014-Sep-17 07:23N 55°28' E 008°26'0 0.0
2014-Sep-17 06:26N 55°28' E 008°26'0 0.0
2014-Sep-17 05:32N 55°28' E 008°26'0 0.0
2014-Sep-17 04:30N 55°28' E 008°26'0 0.0
2014-Sep-17 03:33N 55°28' E 008°26'0 0.0
2014-Sep-17 02:30N 55°28' E 008°26'0 0.0
2014-Sep-17 00:32N 55°28' E 008°26'0 0.0
2014-Sep-16 23:32N 55°28' E 008°26'0 0.0
2014-Sep-16 22:33N 55°28' E 008°26'0 0.0
2014-Sep-16 21:33N 55°28' E 008°26'0 0.0
2014-Sep-16 20:30N 55°28' E 008°26'0 0.0
2014-Sep-16 19:33N 55°28' E 008°26'0 0.0
2014-Sep-16 17:26N 55°28' E 008°26'0 0.0
2014-Sep-16 16:33N 55°28' E 008°26'0 0.0
2014-Sep-16 15:30N 55°28' E 008°26'0 0.0
2014-Sep-16 14:33N 55°28' E 008°26'0 0.0
2014-Sep-16 13:33N 55°28' E 008°26'5 5.5
2014-Sep-16 12:33N 55°27' E 008°17'1010.2
2014-Sep-16 11:33N 55°24' E 007°59'9 9.0
2014-Sep-16 10:33N 55°24' E 007°43'1313.0
2014-Sep-16 09:33N 55°24' E 007°20'26512.0
2014-Sep-15 11:32N 54°53' W 000°19'2013.9
2014-Sep-15 10:04N 54°45' W 000°52'713.8
2014-Sep-15 09:32N 54°42' W 001°04'6 6.0
2014-Sep-15 08:33N 54°37' W 001°10'0 0.0
2014-Sep-15 07:26N 54°37' W 001°10'0 0.0
2014-Sep-15 05:33N 54°37' W 001°10'0 0.0
2014-Sep-13 14:14N 54°37' W 001°10'0 0.0
2014-Sep-13 13:26N 54°37' W 001°10'0 0.0
2014-Sep-13 12:29N 54°37' W 001°10'0 0.0
2014-Sep-13 10:32N 54°37' W 001°10'0 0.0
2014-Sep-13 09:32N 54°37' W 001°10'0 0.0
2014-Sep-13 08:32N 54°37' W 001°10'0 0.0
2014-Sep-12 17:08N 54°37' W 001°10'0 0.0
2014-Sep-12 16:32N 54°37' W 001°10'0 0.0
2014-Sep-12 15:20N 54°37' W 001°10'0 0.0
2014-Sep-12 14:08N 54°37' W 001°10'0 0.0
2014-Sep-12 13:26N 54°37' W 001°10'0 0.0
2014-Sep-12 11:23N 54°37' W 001°10'0 0.0
2014-Sep-12 09:29N 54°37' W 001°10'0 0.0
2014-Sep-12 06:29N 54°37' W 001°10'0 0.0
2014-Sep-11 17:14N 54°37' W 001°10'0 0.0
2014-Sep-11 16:32N 54°37' W 001°10'0 0.0
2014-Sep-11 15:05N 54°37' W 001°10'0 0.0
2014-Sep-11 12:23N 54°37' W 001°10'0 0.0
2014-Sep-11 11:33N 54°37' W 001°10'5 4.6
2014-Sep-11 10:31N 54°40' W 001°03'0 0.1
2014-Sep-11 09:31N 54°40' W 001°03'0 0.0
2014-Sep-11 08:10N 54°40' W 001°03'0 0.1
2014-Sep-11 07:25N 54°40' W 001°03'0 0.0
2014-Sep-11 06:25N 54°40' W 001°03'0 0.0
2014-Sep-11 05:31N 54°40' W 001°03'0 0.0
2014-Sep-11 04:22N 54°40' W 001°03'0 0.0
2014-Sep-11 03:30N 54°40' W 001°03'0 0.0
2014-Sep-11 02:31N 54°40' W 001°03'0 0.1
2014-Sep-11 01:32N 54°40' W 001°03'0 0.0
2014-Sep-11 00:31N 54°40' W 001°03'  

Dump ship's entire track history